Time;durP1;ratioP1;P1;durP2;ratioP2;P2;SDS_P1;SDS_P2;PMS_P1;PMS_P2;Temp;Humidity;BMP_temperature;BMP_pressure;BME280_temperature;BME280_humidity;BME280_pressure;Samples;Min_cycle;Max_cycle;Signal;HPM_P1;HPM_P2
2021/10/07 12:41:43;;;;;;;3.63;2.92;;;;;;;16.07;55.15;99926.97;2622765;36;20440;-67
2021/10/07 12:44:20;;;;;;;5.88;3.55;;;;;;;16.00;54.85;99926.97;2622327;54;20027;-68
2021/10/07 12:46:52;;;;;;;3.83;3.20;;;;;;;15.94;55.28;99930.44;2621456;54;20058;-62
2021/10/07 12:49:34;;;;;;;3.28;2.97;;;;;;;15.98;55.36;99929.00;2620372;54;20030;-63
2021/10/07 12:52:14;;;;;;;3.00;2.80;;;;;;;15.91;54.84;99927.34;2620771;54;20026;-63
2021/10/07 12:54:44;;;;;;;3.50;3.20;;;;;;;15.87;54.98;99926.09;2620064;54;20076;-63
2021/10/07 12:57:35;;;;;;;4.75;3.70;;;;;;;15.90;55.43;99928.38;2619263;54;20081;-64
2021/10/07 13:00:07;;;;;;;3.95;3.05;;;;;;;15.95;55.54;99925.91;2619128;54;20134;-64
2021/10/07 13:02:37;;;;;;;4.22;3.40;;;;;;;15.97;55.81;99923.88;2618421;54;20062;-64
2021/10/07 13:05:17;;;;;;;4.53;3.22;;;;;;;15.90;55.83;99925.69;2619649;54;20084;-64
2021/10/07 13:07:47;;;;;;;5.63;4.20;;;;;;;15.91;55.74;99925.50;2619609;39;20450;-64
2021/10/07 13:10:17;;;;;;;4.63;3.92;;;;;;;15.67;56.41;99924.16;2619299;54;20030;-64
2021/10/07 13:12:50;;;;;;;5.20;4.68;;;;;;;15.65;56.37;99928.06;2619540;31;20518;-63
2021/10/07 13:15:20;;;;;;;6.75;3.72;;;;;;;15.68;55.12;99927.66;2619358;39;20433;-64
2021/10/07 13:17:49;;;;;;;3.78;3.47;;;;;;;15.76;55.42;99935.50;2618785;54;20122;-63
2021/10/07 13:20:21;;;;;;;6.57;4.00;;;;;;;15.86;55.66;99941.28;2618709;54;20038;-63
2021/10/07 13:22:51;;;;;;;5.60;3.60;;;;;;;16.00;54.50;99934.97;2618529;54;20027;-63
2021/10/07 13:25:22;;;;;;;3.70;3.03;;;;;;;15.97;53.72;99935.38;2618253;47;20090;-63
2021/10/07 13:27:55;;;;;;;4.00;3.30;;;;;;;15.99;52.45;99940.50;2618740;54;20562;-63
2021/10/07 13:30:24;;;;;;;4.00;3.10;;;;;;;16.01;52.08;99933.94;2618218;47;20022;-63
2021/10/07 13:32:57;;;;;;;3.72;2.88;;;;;;;16.09;51.96;99933.78;2617788;54;20030;-63
2021/10/07 13:35:29;;;;;;;3.05;2.50;;;;;;;16.13;52.72;99926.19;2618937;54;20042;-63
2021/10/07 13:37:59;;;;;;;4.10;2.80;;;;;;;16.15;52.41;99925.97;2618016;54;20034;-63
2021/10/07 13:40:29;;;;;;;2.78;2.58;;;;;;;16.19;51.21;99924.56;2621017;54;20027;-63
2021/10/07 13:43:01;;;;;;;3.88;2.70;;;;;;;16.24;51.10;99925.59;2622396;54;20041;-63
2021/10/07 13:45:32;;;;;;;2.58;2.22;;;;;;;16.29;49.92;99919.66;2621898;47;20019;-63
2021/10/07 13:48:02;;;;;;;2.78;2.45;;;;;;;16.24;49.07;99922.09;2622916;54;20027;-63
2021/10/07 13:50:32;;;;;;;3.00;2.70;;;;;;;16.20;48.56;99924.34;2622814;54;20026;-62
2021/10/07 13:53:02;;;;;;;4.15;2.35;;;;;;;16.19;48.92;99917.38;2620112;54;20118;-63
2021/10/07 13:55:33;;;;;;;3.63;2.50;;;;;;;16.25;49.20;99913.09;2621896;54;20055;-63
2021/10/07 13:58:05;;;;;;;2.88;2.50;;;;;;;16.34;49.20;99914.53;2623357;54;20077;-63
2021/10/07 14:00:35;;;;;;;2.90;2.65;;;;;;;16.36;48.71;99912.47;2624140;54;20031;-62
2021/10/07 14:03:06;;;;;;;2.35;2.15;;;;;;;16.30;48.91;99914.13;2624458;54;20030;-63
2021/10/07 14:05:44;;;;;;;2.55;1.98;;;;;;;16.31;48.59;99921.09;2624228;54;20049;-63
2021/10/07 14:08:17;;;;;;;4.43;3.05;;;;;;;16.31;49.41;99917.59;2623908;54;20042;-63
2021/10/07 14:10:48;;;;;;;3.20;2.40;;;;;;;16.27;49.66;99922.50;2623513;47;20030;-63
2021/10/07 14:13:21;;;;;;;2.65;2.45;;;;;;;16.28;50.01;99918.00;2623636;54;20038;-63
2021/10/07 14:15:51;;;;;;;3.05;2.28;;;;;;;16.32;49.71;99917.38;2623641;54;20530;-62
2021/10/07 14:18:21;;;;;;;4.15;2.90;;;;;;;16.34;50.05;99918.03;2623171;54;20034;-62
2021/10/07 14:20:51;;;;;;;3.75;2.72;;;;;;;16.32;50.61;99920.06;2623233;54;20038;-62
2021/10/07 14:23:20;;;;;;;3.08;2.60;;;;;;;16.33;50.61;99927.06;2622939;31;20482;-63
2021/10/07 14:25:51;;;;;;;3.42;3.08;;;;;;;16.41;51.15;99925.19;2621436;31;20523;-63
2021/10/07 14:28:24;;;;;;;3.03;2.80;;;;;;;16.52;51.20;99927.28;2619347;54;20125;-63
2021/10/07 14:30:55;;;;;;;4.18;3.10;;;;;;;16.69;51.09;99925.03;2619077;54;20081;-63
2021/10/07 14:33:24;;;;;;;3.08;2.58;;;;;;;16.73;50.99;99931.63;2618518;54;20448;-63
2021/10/07 14:35:54;;;;;;;6.53;3.90;;;;;;;16.69;51.37;99927.69;2618686;54;20031;-63
2021/10/07 14:38:24;;;;;;;4.15;2.83;;;;;;;16.57;51.04;99928.31;2618092;47;20052;-62
2021/10/07 14:40:53;;;;;;;3.50;2.53;;;;;;;16.38;51.25;99936.31;2617786;47;20129;-62
2021/10/07 14:43:25;;;;;;;3.72;2.88;;;;;;;16.07;51.44;99930.47;2618321;54;20069;-63
2021/10/07 14:45:55;;;;;;;3.63;3.00;;;;;;;16.04;52.18;99944.22;2618101;47;20587;-62
2021/10/07 14:48:24;;;;;;;4.30;2.67;;;;;;;15.96;52.34;99935.56;2623034;31;20658;-63
2021/10/07 14:50:54;;;;;;;4.05;2.58;;;;;;;15.80;53.05;99937.56;2621795;31;20581;-63
2021/10/07 14:53:24;;;;;;;4.63;3.05;;;;;;;15.65;53.08;99939.53;2619482;54;20541;-62
2021/10/07 14:55:57;;;;;;;4.82;3.05;;;;;;;15.61;53.29;99933.75;2617816;54;20045;-63
2021/10/07 14:58:29;;;;;;;4.88;3.28;;;;;;;15.60;53.42;99937.44;2618649;54;20053;-63
2021/10/07 15:00:58;;;;;;;4.93;3.25;;;;;;;15.68;53.73;99941.00;2618448;54;20557;-63
2021/10/07 15:03:28;;;;;;;3.92;3.10;;;;;;;15.76;52.99;99941.66;2618419;54;20158;-63
2021/10/07 15:05:58;;;;;;;3.88;2.85;;;;;;;15.85;53.16;99939.63;2619040;39;20441;-63
2021/10/07 15:08:27;;;;;;;3.45;3.10;;;;;;;15.82;53.22;99940.03;2618606;54;20045;-63
2021/10/07 15:10:57;;;;;;;3.33;2.90;;;;;;;15.91;53.22;99936.16;2618391;54;20034;-63
2021/10/07 15:13:29;;;;;;;4.53;3.50;;;;;;;15.98;53.61;99938.84;2618141;54;20044;-63
2021/10/07 15:15:58;;;;;;;5.90;3.10;;;;;;;16.14;53.43;99943.00;2618451;54;20062;-62
2021/10/07 15:18:29;;;;;;;4.18;3.08;;;;;;;16.23;52.57;99939.94;2618158;54;20033;-63
2021/10/07 15:21:01;;;;;;;6.88;3.45;;;;;;;16.22;52.37;99937.50;2619370;54;20074;-63
2021/10/07 15:23:31;;;;;;;4.82;3.47;;;;;;;16.23;52.26;99937.28;2622335;54;20038;-62
2021/10/07 15:26:01;;;;;;;3.97;3.47;;;;;;;16.09;52.59;99936.44;2623043;54;20050;-62
2021/10/07 15:28:33;;;;;;;4.88;2.85;;;;;;;15.90;53.68;99931.03;2619516;54;20042;-63
2021/10/07 15:31:03;;;;;;;5.93;3.10;;;;;;;16.00;53.76;99932.31;2618310;54;20054;-62
2021/10/07 15:33:35;;;;;;;6.28;3.90;;;;;;;15.93;53.88;99933.31;2617624;54;20034;-63
2021/10/07 15:36:05;;;;;;;4.85;3.47;;;;;;;15.70;55.07;99939.75;2618386;54;20165;-64
2021/10/07 15:38:34;;;;;;;4.43;3.85;;;;;;;15.53;55.96;99941.91;2617784;54;20086;-63
2021/10/07 15:41:04;;;;;;;6.25;4.18;;;;;;;15.37;56.66;99942.22;2617976;54;20065;-64
2021/10/07 15:43:38;;;;;;;6.65;4.07;;;;;;;15.26;57.19;99940.91;2617636;54;20034;-63
2021/10/07 15:46:07;;;;;;;;;;;;;;;15.15;57.03;99940.66;2618436;54;20122;-63
2021/10/07 15:48:38;;;;;;;5.57;3.80;;;;;;;15.03;57.69;99940.38;2618825;39;20337;-64
2021/10/07 15:51:08;;;;;;;4.93;4.05;;;;;;;14.98;58.37;99938.28;2617912;54;20042;-64
2021/10/07 15:53:37;;;;;;;8.13;4.88;;;;;;;14.94;58.51;99945.00;2619355;39;20425;-64
2021/10/07 15:56:07;;;;;;;5.60;4.03;;;;;;;14.96;59.01;99937.66;2617936;54;20033;-64
2021/10/07 15:58:39;;;;;;;3.90;3.25;;;;;;;14.93;58.91;99945.19;2618536;39;20441;-64
2021/10/07 16:01:09;;;;;;;4.72;3.58;;;;;;;14.85;59.13;99941.66;2618786;54;20134;-64
2021/10/07 16:03:39;;;;;;;5.78;3.80;;;;;;;14.85;59.14;99949.63;2618235;54;20038;-65
2021/10/07 16:06:08;;;;;;;5.90;4.07;;;;;;;14.84;59.51;99948.00;2619146;54;20077;-63
2021/10/07 16:08:38;;;;;;;5.43;4.10;;;;;;;14.76;59.57;99949.97;2620057;31;20511;-64
2021/10/07 16:11:07;;;;;;;4.97;3.70;;;;;;;14.74;59.46;99952.84;2618600;54;20081;-64
2021/10/07 16:13:40;;;;;;;6.60;3.95;;;;;;;14.72;59.87;99956.69;2618758;54;20038;-64
2021/10/07 16:16:09;;;;;;;5.13;4.57;;;;;;;14.75;59.64;99953.66;2618891;54;20086;-64
2021/10/07 16:18:39;;;;;;;5.75;3.72;;;;;;;14.69;59.88;99959.72;2619121;54;20058;-64
2021/10/07 16:21:08;;;;;;;5.80;4.20;;;;;;;14.69;60.29;99963.22;2619674;54;20042;-65
2021/10/07 16:23:38;;;;;;;6.13;4.60;;;;;;;14.70;59.98;99964.06;2619955;54;20039;-64
2021/10/07 16:26:10;;;;;;;5.47;4.43;;;;;;;14.73;60.34;99959.16;2619739;54;20031;-64
2021/10/07 16:28:42;;;;;;;5.13;3.90;;;;;;;14.77;60.06;99963.06;2619801;54;20030;-64
2021/10/07 16:31:14;;;;;;;4.95;4.30;;;;;;;14.82;60.36;99959.88;2620018;54;20898;-64
2021/10/07 16:33:43;;;;;;;7.00;5.03;;;;;;;14.82;60.40;99967.84;2619717;39;20497;-64
2021/10/07 16:36:13;;;;;;;6.13;4.95;;;;;;;14.81;60.40;99966.19;2618805;54;20560;-66
2021/10/07 16:38:43;;;;;;;5.47;4.47;;;;;;;14.79;60.57;99970.88;2619195;54;20090;-64
2021/10/07 16:41:12;;;;;;;6.22;5.20;;;;;;;14.79;60.42;99965.56;2618803;54;20038;-64
2021/10/07 16:43:44;;;;;;;12.25;7.30;;;;;;;14.76;60.54;99965.94;2618294;47;20074;-64
2021/10/07 16:46:14;;;;;;;6.22;4.82;;;;;;;14.72;60.19;99975.31;2618736;54;20113;-65
2021/10/07 16:48:44;;;;;;;6.50;4.95;;;;;;;14.59;60.92;99981.34;2618829;54;20070;-65
2021/10/07 16:51:13;;;;;;;5.45;4.20;;;;;;;14.50;60.96;99985.16;2618576;54;20118;-64
2021/10/07 16:53:44;;;;;;;5.93;4.10;;;;;;;14.44;61.07;99989.34;2619041;54;20580;-64
2021/10/07 16:56:14;;;;;;;5.45;3.85;;;;;;;14.40;61.65;99990.72;2619327;54;20039;-64
2021/10/07 16:58:48;;;;;;;6.82;4.93;;;;;;;14.40;61.21;99989.91;2619658;39;20429;-64
2021/10/07 17:01:17;;;;;;;6.20;4.88;;;;;;;14.30;61.40;99993.69;2619401;54;20038;-64
2021/10/07 17:03:48;;;;;;;6.15;4.90;;;;;;;14.18;61.93;99989.06;2619806;54;20078;-64
2021/10/07 17:06:18;;;;;;;5.75;4.72;;;;;;;14.04;62.38;99996.03;2620669;54;20057;-64
2021/10/07 17:08:47;;;;;;;6.25;4.80;;;;;;;13.97;63.00;99990.66;2620440;54;20038;-64
2021/10/07 17:11:18;;;;;;;5.82;4.80;;;;;;;13.88;63.08;99991.78;2619749;54;20027;-64
2021/10/07 17:13:51;;;;;;;5.05;4.55;;;;;;;13.81;63.33;99999.66;2619088;54;20027;-64
2021/10/07 17:16:20;;;;;;;5.97;4.57;;;;;;;13.77;63.54;100003.69;2618745;54;20534;-64
2021/10/07 17:18:50;;;;;;;6.07;4.53;;;;;;;13.70;64.08;99997.44;2618564;54;20113;-64
2021/10/07 17:21:20;;;;;;;6.95;5.35;;;;;;;13.63;64.19;100002.69;2618978;54;20077;-64
2021/10/07 17:23:50;;;;;;;10.00;6.63;;;;;;;13.57;64.70;100005.25;2618617;47;20030;-64
2021/10/07 17:26:19;;;;;;;7.95;7.00;;;;;;;13.46;65.06;100008.34;2619213;54;20050;-64
2021/10/07 17:28:52;;;;;;;8.13;6.40;;;;;;;13.42;65.08;100010.53;2619139;54;20030;-64
2021/10/07 17:31:21;;;;;;;12.27;8.45;;;;;;;13.43;65.30;100011.34;2618373;54;20549;-64
2021/10/07 17:33:51;;;;;;;29.15;21.25;;;;;;;13.40;65.35;100011.72;2618992;54;20034;-64
2021/10/07 17:36:21;;;;;;;27.67;19.48;;;;;;;13.39;65.71;100026.84;2618934;54;20030;-64
2021/10/07 17:38:50;;;;;;;14.50;10.20;;;;;;;13.34;65.57;100016.75;2618916;54;20042;-64
2021/10/07 17:41:20;;;;;;;13.05;9.60;;;;;;;13.31;65.88;100021.63;2617815;54;20042;-64
2021/10/07 17:43:52;;;;;;;17.05;12.50;;;;;;;13.24;65.73;100028.66;2618764;54;20030;-64
2021/10/07 17:46:23;;;;;;;11.23;8.10;;;;;;;13.18;65.96;100029.31;2618062;47;20031;-64
2021/10/07 17:48:54;;;;;;;16.52;11.88;;;;;;;13.13;66.24;100028.03;2618128;47;20110;-64
2021/10/07 17:51:24;;;;;;;13.43;9.38;;;;;;;13.09;66.68;100034.69;2618379;54;20030;-64
2021/10/07 17:53:53;;;;;;;13.63;9.85;;;;;;;13.06;66.77;100028.91;2618651;54;20042;-65
2021/10/07 17:56:23;;;;;;;13.43;8.18;;;;;;;13.04;66.88;100033.59;2618461;54;20034;-64
2021/10/07 17:58:56;;;;;;;12.52;9.32;;;;;;;12.99;67.35;100030.66;2619007;39;20461;-64
2021/10/07 18:01:26;;;;;;;10.27;7.80;;;;;;;12.99;67.13;100028.00;2619302;31;20529;-64
2021/10/07 18:03:56;;;;;;;11.10;7.25;;;;;;;12.92;67.75;100035.00;2618625;54;20037;-64
2021/10/07 18:06:27;;;;;;;9.73;8.30;;;;;;;12.80;67.99;100032.78;2617814;54;20121;-64
2021/10/07 18:08:57;;;;;;;9.07;7.88;;;;;;;12.71;68.49;100043.63;2618360;47;20038;-64
2021/10/07 18:11:26;;;;;;;10.23;6.85;;;;;;;12.62;68.98;100035.72;2618260;54;20026;-64
2021/10/07 18:13:59;;;;;;;8.07;7.05;;;;;;;12.58;69.02;100044.22;2618457;54;20122;-64
2021/10/07 18:16:35;;;;;;;15.45;10.75;;;;;;;12.58;69.07;100047.69;2617754;54;20122;-64
2021/10/07 18:19:06;;;;;;;16.35;11.57;;;;;;;12.54;69.34;100046.38;2619667;54;20561;-64
2021/10/07 18:21:37;;;;;;;18.10;10.52;;;;;;;12.56;69.17;100052.31;2622532;54;20034;-65
2021/10/07 18:24:10;;;;;;;14.57;11.07;;;;;;;12.54;69.45;100054.34;2619636;54;20163;-65
2021/10/07 18:26:40;;;;;;;15.25;8.45;;;;;;;12.46;69.29;100049.06;2619398;39;20524;-65
2021/10/07 18:29:12;;;;;;;12.95;10.00;;;;;;;12.39;69.74;100053.41;2617951;51;20647;-64
2021/10/07 18:31:42;;;;;;;13.63;7.90;;;;;;;12.32;70.17;100047.16;2618378;54;20554;-64
2021/10/07 18:34:12;;;;;;;17.15;13.07;;;;;;;12.27;70.07;100052.16;2618238;54;20038;-64
2021/10/07 18:36:41;;;;;;;12.48;9.13;;;;;;;12.13;70.65;100053.72;2618126;54;20089;-64
2021/10/07 18:39:11;;;;;;;13.70;8.85;;;;;;;12.11;70.58;100051.22;2618313;54;20031;-64
2021/10/07 18:41:44;;;;;;;11.70;8.38;;;;;;;12.14;70.45;100048.22;2618392;54;20031;-64
2021/10/07 18:44:19;;;;;;;9.95;7.13;;;;;;;12.22;70.45;100055.31;2618429;54;20034;-64
2021/10/07 18:46:51;;;;;;;11.30;8.75;;;;;;;12.21;70.57;100052.84;2618509;54;20061;-65
2021/10/07 18:49:21;;;;;;;14.05;7.95;;;;;;;12.12;70.62;100058.19;2618707;39;20502;-64
2021/10/07 18:51:51;;;;;;;13.13;8.93;;;;;;;12.09;70.99;100063.00;2618201;54;20106;-64
2021/10/07 18:54:20;;;;;;;11.63;9.20;;;;;;;12.00;70.94;100058.72;2619125;54;20049;-64
2021/10/07 18:56:50;;;;;;;12.18;7.88;;;;;;;11.89;70.79;100052.81;2618426;47;20118;-64
2021/10/07 18:59:23;;;;;;;11.18;8.02;;;;;;;11.87;71.40;100056.59;2617939;47;20038;-64
2021/10/07 19:01:53;;;;;;;12.57;9.10;;;;;;;11.86;71.10;100062.91;2618455;54;20038;-64
2021/10/07 19:04:22;;;;;;;10.60;7.90;;;;;;;11.88;71.42;100064.41;2618350;54;20669;-64
2021/10/07 19:06:52;;;;;;;9.88;8.20;;;;;;;11.89;71.43;100062.56;2618282;54;20110;-64
2021/10/07 19:09:22;;;;;;;11.50;7.47;;;;;;;11.88;71.50;100067.06;2619194;31;20524;-64
2021/10/07 19:11:51;;;;;;;12.82;7.47;;;;;;;11.86;71.53;100068.22;2618221;54;20061;-64
2021/10/07 19:14:23;;;;;;;16.25;12.15;;;;;;;11.87;71.62;100075.16;2618453;54;20065;-64
2021/10/07 19:16:53;;;;;;;9.10;7.75;;;;;;;11.82;71.36;100066.88;2618273;54;20038;-65
2021/10/07 19:19:23;;;;;;;13.85;7.82;;;;;;;11.69;72.04;100072.69;2617862;39;20537;-64
2021/10/07 19:21:53;;;;;;;10.15;7.55;;;;;;;11.58;72.36;100071.22;2618959;39;20453;-64
2021/10/07 19:24:23;;;;;;;8.73;7.10;;;;;;;11.54;72.33;100074.38;2617583;54;20549;-64
2021/10/07 19:26:54;;;;;;;9.02;6.80;;;;;;;11.46;72.52;100087.63;2617447;54;20057;-65
2021/10/07 19:29:26;;;;;;;9.07;7.15;;;;;;;11.39;73.26;100082.19;2617606;54;20046;-65
2021/10/07 19:31:56;;;;;;;7.50;6.07;;;;;;;11.31;73.39;100080.34;2617923;54;20034;-65
2021/10/07 19:34:26;;;;;;;6.97;6.30;;;;;;;11.26;73.55;100084.47;2617459;47;20060;-65
2021/10/07 19:36:56;;;;;;;13.48;8.88;;;;;;;11.19;73.67;100080.84;2617604;54;20022;-64
2021/10/07 19:39:25;;;;;;;13.85;10.25;;;;;;;11.16;73.69;100082.00;2618083;54;20126;-65
2021/10/07 19:41:55;;;;;;;10.45;7.30;;;;;;;11.18;73.67;100085.28;2617898;54;20050;-68
2021/10/07 19:44:27;;;;;;;8.80;7.32;;;;;;;11.13;73.68;100083.16;2617318;54;20130;-65
2021/10/07 19:46:57;;;;;;;9.05;6.32;;;;;;;11.07;73.87;100080.34;2618281;54;20058;-64
2021/10/07 19:49:27;;;;;;;8.18;6.00;;;;;;;11.03;73.85;100087.78;2618130;54;20034;-65
2021/10/07 19:51:58;;;;;;;8.30;6.65;;;;;;;10.98;73.87;100091.91;2617974;54;20553;-65
2021/10/07 19:54:28;;;;;;;11.25;6.63;;;;;;;10.96;74.09;100092.06;2618197;54;20038;-65
2021/10/07 19:56:57;;;;;;;8.38;7.20;;;;;;;10.99;74.10;100101.50;2617994;54;20576;-65
2021/10/07 19:59:30;;;;;;;7.65;6.28;;;;;;;10.97;74.32;100106.94;2618164;54;20549;-65
2021/10/07 20:01:59;;;;;;;9.52;6.63;;;;;;;10.95;74.12;100094.91;2618326;54;20031;-63
2021/10/07 20:04:29;;;;;;;6.38;5.78;;;;;;;10.90;74.03;100100.69;2618468;54;20049;-63
2021/10/07 20:06:59;;;;;;;7.53;6.22;;;;;;;10.87;74.29;100098.34;2618820;54;20126;-64
2021/10/07 20:09:28;;;;;;;9.38;6.68;;;;;;;10.87;74.36;100095.69;2620546;54;20039;-64
2021/10/07 20:11:58;;;;;;;9.52;6.20;;;;;;;10.86;74.09;100102.81;2620744;47;20034;-64
2021/10/07 20:14:31;;;;;;;9.88;6.70;;;;;;;10.86;74.37;100102.81;2619836;54;20081;-65
2021/10/07 20:17:00;;;;;;;12.35;6.57;;;;;;;10.85;74.55;100098.50;2619106;54;20034;-64
2021/10/07 20:19:30;;;;;;;7.90;6.53;;;;;;;10.88;74.29;100100.00;2618419;39;20458;-64
2021/10/07 20:22:00;;;;;;;8.10;6.85;;;;;;;10.83;73.89;100097.84;2618087;54;20545;-64
2021/10/07 20:24:30;;;;;;;7.90;5.97;;;;;;;10.76;73.94;100101.28;2618253;39;20433;-64
2021/10/07 20:27:00;;;;;;;9.35;6.63;;;;;;;10.68;74.00;100102.09;2619168;31;20529;-64
2021/10/07 20:29:33;;;;;;;8.40;6.75;;;;;;;10.62;74.38;100103.59;2618483;54;20134;-64
2021/10/07 20:32:06;;;;;;;8.45;6.60;;;;;;;10.59;74.72;100097.78;2617604;47;20030;-64
2021/10/07 20:34:56;;;;;;;8.98;6.35;;;;;;;10.62;74.46;100094.81;2618916;54;20077;-64
2021/10/07 20:37:26;;;;;;;8.18;5.70;;;;;;;10.61;74.15;100093.16;2618024;54;20550;-65
2021/10/07 20:39:57;;;;;;;32.63;22.10;;;;;;;10.53;74.61;100093.13;2619008;54;20034;-65
2021/10/07 20:42:26;;;;;;;9.30;6.50;;;;;;;10.52;74.37;100099.41;2618875;54;20030;-65
2021/10/07 20:45:00;;;;;;;7.00;6.30;;;;;;;10.41;74.76;100095.25;2620566;54;20549;-64
2021/10/07 20:47:30;;;;;;;8.40;6.72;;;;;;;10.36;74.70;100103.66;2621269;54;20089;-64
2021/10/07 20:50:00;;;;;;;7.35;6.07;;;;;;;10.30;74.58;100106.13;2621308;54;20588;-64
2021/10/07 20:52:32;;;;;;;9.88;6.68;;;;;;;10.27;74.70;100106.44;2620888;54;20085;-64
2021/10/07 20:55:02;;;;;;;9.23;6.10;;;;;;;10.17;75.13;100110.00;2624951;39;20453;-64
2021/10/07 20:57:32;;;;;;;11.88;7.50;;;;;;;10.12;75.19;100101.72;2625277;39;20434;-65
2021/10/07 21:00:06;;;;;;;7.70;6.47;;;;;;;10.08;75.29;100097.72;2625353;54;20061;-64
2021/10/07 21:02:35;;;;;;;17.75;11.45;;;;;;;10.08;75.58;100099.53;2625128;54;20562;-65
2021/10/07 21:05:08;;;;;;;19.10;14.45;;;;;;;10.06;75.42;100099.69;2625115;54;20030;-65
2021/10/07 21:07:45;;;;;;;11.85;7.97;;;;;;;9.97;75.73;100100.63;2624445;54;20026;-65
2021/10/07 21:10:16;;;;;;;10.13;7.13;;;;;;;10.03;75.89;100105.28;2624511;54;20026;-65
2021/10/07 21:12:49;;;;;;;9.05;6.40;;;;;;;10.12;75.43;100103.50;2623956;54;20073;-65
2021/10/07 21:15:21;;;;;;;8.43;6.65;;;;;;;10.21;75.35;100097.28;2623814;54;20077;-65
2021/10/07 21:17:51;;;;;;;11.82;7.32;;;;;;;10.22;74.57;100095.47;2625725;39;20403;-65
2021/10/07 21:20:22;;;;;;;10.27;6.70;;;;;;;10.16;74.64;100097.78;2623645;54;20065;-65
2021/10/07 21:22:52;;;;;;;9.07;6.78;;;;;;;10.12;75.36;100093.78;2623648;39;20337;-64
2021/10/07 21:25:21;;;;;;;13.68;7.50;;;;;;;10.10;74.91;100095.75;2623729;54;20030;-64
2021/10/07 21:27:51;;;;;;;8.63;6.75;;;;;;;9.97;74.56;100098.00;2620710;54;20073;-64
2021/10/07 21:30:23;;;;;;;9.93;6.82;;;;;;;9.87;74.86;100094.63;2620062;54;20043;-65
2021/10/07 21:32:53;;;;;;;10.25;6.72;;;;;;;9.74;74.97;100089.75;2618965;47;20035;-64
2021/10/07 21:35:23;;;;;;;10.27;7.30;;;;;;;9.66;75.27;100095.00;2620252;54;20078;-64
2021/10/07 21:37:53;;;;;;;9.93;7.00;;;;;;;9.59;75.81;100093.94;2622171;54;20034;-64
2021/10/07 21:40:22;;;;;;;15.63;11.90;;;;;;;9.57;75.92;100095.94;2622232;54;20039;-64
2021/10/07 21:42:52;;;;;;;9.88;7.80;;;;;;;9.66;75.84;100092.34;2619577;54;20030;-64
2021/10/07 21:45:24;;;;;;;7.88;6.82;;;;;;;9.76;76.04;100090.47;2619251;54;20081;-64
2021/10/07 21:47:54;;;;;;;11.73;7.85;;;;;;;9.79;75.02;100094.56;2618991;54;20022;-63
2021/10/07 21:50:24;;;;;;;11.18;7.40;;;;;;;9.73;75.22;100103.13;2618402;47;20573;-63
2021/10/07 21:52:54;;;;;;;8.60;6.75;;;;;;;9.68;75.61;100099.16;2618350;54;20023;-64
2021/10/07 21:55:24;;;;;;;10.00;7.40;;;;;;;9.71;74.98;100097.16;2619742;54;20037;-63
2021/10/07 21:57:54;;;;;;;10.02;7.30;;;;;;;9.58;75.32;100095.75;2618775;54;20054;-64
2021/10/07 22:00:31;;;;;;;8.68;7.72;;;;;;;9.53;75.61;100097.22;2619257;54;20035;-64
2021/10/07 22:03:03;;;;;;;7.70;6.50;;;;;;;9.43;75.43;100097.31;2619214;54;20044;-64
2021/10/07 22:05:33;;;;;;;10.43;6.60;;;;;;;9.35;75.82;100099.91;2620242;54;20118;-64
2021/10/07 22:08:03;;;;;;;10.88;6.30;;;;;;;9.37;76.08;100103.19;2621417;54;20050;-64
2021/10/07 22:10:37;;;;;;;11.70;5.80;;;;;;;9.38;76.19;100097.75;2621634;54;20073;-64
2021/10/07 22:13:06;;;;;;;10.43;6.85;;;;;;;9.40;75.73;100093.16;2622820;54;20054;-65
2021/10/07 22:15:39;;;;;;;9.57;5.93;;;;;;;9.37;74.89;100090.00;2619152;47;20081;-64
2021/10/07 22:18:08;;;;;;;8.25;5.72;;;;;;;9.27;75.66;100090.09;2619007;54;20022;-64
2021/10/07 22:20:38;;;;;;;9.48;6.07;;;;;;;9.26;75.75;100093.69;2618661;54;20038;-64
2021/10/07 22:23:08;;;;;;;9.30;6.38;;;;;;;9.16;75.67;100085.06;2619403;54;20038;-64
2021/10/07 22:25:39;;;;;;;8.02;6.38;;;;;;;9.15;75.84;100099.25;2618961;54;20050;-63
2021/10/07 22:28:09;;;;;;;9.82;6.75;;;;;;;9.16;75.65;100099.06;2618530;47;20030;-63
2021/10/07 22:30:41;;;;;;;7.30;6.32;;;;;;;9.19;76.04;100092.69;2618830;54;20198;-63
2021/10/07 22:33:11;;;;;;;8.40;5.85;;;;;;;9.13;75.42;100095.91;2618707;54;20030;-64
2021/10/07 22:35:41;;;;;;;7.72;5.53;;;;;;;9.07;75.79;100093.91;2622205;54;20034;-64
2021/10/07 22:38:10;;;;;;;6.70;5.20;;;;;;;8.99;75.70;100099.91;2621712;54;20216;-64
2021/10/07 22:40:40;;;;;;;9.13;6.20;;;;;;;8.97;75.70;100103.69;2618315;54;20587;-64
2021/10/07 22:43:10;;;;;;;8.25;6.30;;;;;;;8.91;76.00;100097.19;2618716;47;20027;-64
2021/10/07 22:45:42;;;;;;;6.78;5.97;;;;;;;8.88;75.92;100100.13;2619102;54;20048;-64
2021/10/07 22:48:12;;;;;;;7.57;6.03;;;;;;;8.82;76.04;100098.94;2618232;54;20057;-64
2021/10/07 22:50:42;;;;;;;7.20;6.03;;;;;;;8.77;76.17;100105.63;2617666;54;20577;-64
2021/10/07 22:53:12;;;;;;;10.43;7.00;;;;;;;8.72;76.34;100100.78;2618976;39;20430;-64
2021/10/07 22:55:41;;;;;;;8.32;6.05;;;;;;;8.78;75.98;100097.56;2618401;54;20030;-64
2021/10/07 22:58:11;;;;;;;7.72;5.97;;;;;;;8.73;76.33;100105.06;2617903;47;20147;-64
2021/10/07 23:00:43;;;;;;;7.47;5.85;;;;;;;8.68;76.37;100104.69;2619168;54;20554;-64
2021/10/07 23:03:13;;;;;;;8.10;6.20;;;;;;;8.66;76.29;100094.31;2619099;54;20046;-64
2021/10/07 23:05:43;;;;;;;6.10;5.53;;;;;;;8.60;76.07;100094.91;2619027;47;20045;-64
2021/10/07 23:08:12;;;;;;;6.80;6.10;;;;;;;8.55;76.55;100096.31;2619351;54;20033;-65
2021/10/07 23:10:42;;;;;;;6.32;5.57;;;;;;;8.49;76.74;100102.19;2619146;54;20037;-65
2021/10/07 23:13:12;;;;;;;9.85;6.40;;;;;;;8.50;76.61;100094.13;2619356;31;20498;-64
2021/10/07 23:15:44;;;;;;;8.57;6.65;;;;;;;8.52;76.54;100099.25;2618548;54;20030;-64
2021/10/07 23:18:14;;;;;;;8.90;6.72;;;;;;;8.46;76.50;100103.31;2618298;54;20034;-65
2021/10/07 23:20:44;;;;;;;11.32;5.55;;;;;;;8.38;76.76;100096.16;2618353;54;20022;-64
2021/10/07 23:23:17;;;;;;;7.65;5.75;;;;;;;8.39;76.77;100105.69;2619494;54;20146;-65
2021/10/07 23:25:47;;;;;;;12.45;6.32;;;;;;;8.47;76.28;100104.16;2620740;31;20487;-65
2021/10/07 23:28:17;;;;;;;5.68;5.07;;;;;;;8.47;76.40;100099.69;2619291;54;20027;-65
2021/10/07 23:30:49;;;;;;;7.55;5.00;;;;;;;8.46;76.15;100102.50;2619822;54;20034;-63
2021/10/07 23:33:19;;;;;;;7.75;4.95;;;;;;;8.40;76.23;100107.34;2619642;54;20114;-63
2021/10/07 23:35:48;;;;;;;7.03;5.47;;;;;;;8.37;76.71;100101.56;2619620;47;20023;-64
2021/10/07 23:38:18;;;;;;;6.47;5.57;;;;;;;8.36;76.42;100100.69;2619593;54;20045;-64
2021/10/07 23:40:49;;;;;;;6.88;5.15;;;;;;;8.31;76.38;100100.31;2620883;39;20512;-64
2021/10/07 23:43:19;;;;;;;7.18;4.75;;;;;;;8.35;76.71;100101.66;2620660;46;20049;-64
2021/10/07 23:45:53;;;;;;;6.80;5.05;;;;;;;8.37;76.46;100096.31;2620448;54;20042;-64
2021/10/07 23:48:22;;;;;;;5.53;4.90;;;;;;;8.40;76.69;100102.09;2620299;54;20042;-64
2021/10/07 23:50:52;;;;;;;5.93;4.45;;;;;;;8.48;76.23;100103.16;2619769;54;20038;-64
2021/10/07 23:53:21;;;;;;;5.90;4.65;;;;;;;8.51;76.36;100105.50;2619470;54;20033;-65
2021/10/07 23:55:51;;;;;;;5.55;4.65;;;;;;;8.56;76.18;100096.16;2619739;54;20030;-66
2021/10/07 23:58:21;;;;;;;5.40;4.10;;;;;;;8.52;75.63;100093.97;2619991;54;20069;-64
